Aviation Digital Data Service (ADDS)

Output produced by METARs form (0346 UTC 20 March 2019)
found at http://www.aviationweather.gov/metar/data/
 
METAR text: ETSB 200320Z AUTO 28003KT 9999 // ////// 02/M03 Q1031 ///
Conditions at: ETSB (BUECHEL , DE) observed 0320 UTC 20 March 2019
Temperature: 2.0°C (36°F)
Dewpoint: -3.0°C (27°F) [RH = 69%]
Pressure (altimeter): 30.44 inches Hg (1031.0 mb)
Winds: from the W (280 degrees) at 3 MPH (3 knots; 1.5 m/s)
Visibility: 6 or more miles (10+ km)
Ceiling: unknown
Clouds: missing
Weather: no significant weather observed at this time

METAR text: ETSB 200220Z AUTO 24002KT 9999 // ////// 03/M03 Q1031 ///
Conditions at: ETSB (BUECHEL , DE) observed 0220 UTC 20 March 2019
Temperature: 3.0°C (37°F)
Dewpoint: -3.0°C (27°F) [RH = 65%]
Pressure (altimeter): 30.44 inches Hg (1031.0 mb)
Winds: from the WSW (240 degrees) at 2 MPH (2 knots; 1.0 m/s)
Visibility: 6 or more miles (10+ km)
Ceiling: unknown
Clouds: missing
Weather: no significant weather observed at this time

METAR text: ETSB 200120Z AUTO 23001KT 9999 // ////// 03/M03 Q1031 ///
Conditions at: ETSB (BUECHEL , DE) observed 0120 UTC 20 March 2019
Temperature: 3.0°C (37°F)
Dewpoint: -3.0°C (27°F) [RH = 65%]
Pressure (altimeter): 30.44 inches Hg (1031.0 mb)
Winds: from the SW (230 degrees) at 1 MPH (1 knots; 0.5 m/s)
Visibility: 6 or more miles (10+ km)
Ceiling: unknown
Clouds: missing
Weather: no significant weather observed at this time

METAR text: ETSB 200020Z AUTO 20001KT 9999 // ////// 03/M03 Q1031 ///
Conditions at: ETSB (BUECHEL , DE) observed 0020 UTC 20 March 2019
Temperature: 3.0°C (37°F)
Dewpoint: -3.0°C (27°F) [RH = 65%]
Pressure (altimeter): 30.44 inches Hg (1031.0 mb)
Winds: from the SSW (200 degrees) at 1 MPH (1 knots; 0.5 m/s)
Visibility: 6 or more miles (10+ km)
Ceiling: unknown
Clouds: missing
Weather: no significant weather observed at this time

METAR text: ETSB 192320Z AUTO 17001KT 9999 // ////// 03/M03 Q1031 ///
Conditions at: ETSB (BUECHEL , DE) observed 2320 UTC 19 March 2019
Temperature: 3.0°C (37°F)
Dewpoint: -3.0°C (27°F) [RH = 65%]
Pressure (altimeter): 30.44 inches Hg (1031.0 mb)
Winds: from the S (170 degrees) at 1 MPH (1 knots; 0.5 m/s)
Visibility: 6 or more miles (10+ km)
Ceiling: unknown
Clouds: missing
Weather: no significant weather observed at this time

METAR text: ETSB 192220Z AUTO 05001KT 9999 // ////// 03/M02 Q1031 ///
Conditions at: ETSB (BUECHEL , DE) observed 2220 UTC 19 March 2019
Temperature: 3.0°C (37°F)
Dewpoint: -2.0°C (28°F) [RH = 70%]
Pressure (altimeter): 30.44 inches Hg (1031.0 mb)
Winds: from the NE (50 degrees) at 1 MPH (1 knots; 0.5 m/s)
Visibility: 6 or more miles (10+ km)
Ceiling: unknown
Clouds: missing
Weather: no significant weather observed at this time

METAR text: ETSB 192120Z AUTO 02003KT 9999 // ////// 04/M03 Q1030 ///
Conditions at: ETSB (BUECHEL , DE) observed 2120 UTC 19 March 2019
Temperature: 4.0°C (39°F)
Dewpoint: -3.0°C (27°F) [RH = 60%]
Pressure (altimeter): 30.41 inches Hg (1030.0 mb)
Winds: from the NNE (20 degrees) at 3 MPH (3 knots; 1.5 m/s)
Visibility: 6 or more miles (10+ km)
Ceiling: unknown
Clouds: missing
Weather: no significant weather observed at this time

METAR text: ETSB 192100Z 03003KT 9999 FEW060 04/M03 Q1030 BLU+FCST CANCEL
Conditions at: ETSB (BUECHEL , DE) observed 2100 UTC 19 March 2019
Temperature: 4.0°C (39°F)
Dewpoint: -3.0°C (27°F) [RH = 60%]
Pressure (altimeter): 30.41 inches Hg (1030.0 mb)
Winds: from the NNE (30 degrees) at 3 MPH (3 knots; 1.5 m/s)
Visibility: 6 or more miles (10+ km)
Ceiling: at least 12,000 feet AGL
Clouds: few clouds at 6000 feet AGL
Weather: no significant weather observed at this time

METAR text: ETSB 192020Z 02004KT 9999 FEW060 04/M02 Q1030 BLU+BLU+
Conditions at: ETSB (BUECHEL , DE) observed 2020 UTC 19 March 2019
Temperature: 4.0°C (39°F)
Dewpoint: -2.0°C (28°F) [RH = 65%]
Pressure (altimeter): 30.41 inches Hg (1030.0 mb)
Winds: from the NNE (20 degrees) at 5 MPH (4 knots; 2.1 m/s)
Visibility: 6 or more miles (10+ km)
Ceiling: at least 12,000 feet AGL
Clouds: few clouds at 6000 feet AGL
Weather: no significant weather observed at this time

METAR text: ETSB 191920Z 04005KT 9999 FEW060 05/M03 Q1029 BLU+BLU+
Conditions at: ETSB (BUECHEL , DE) observed 1920 UTC 19 March 2019
Temperature: 5.0°C (41°F)
Dewpoint: -3.0°C (27°F) [RH = 56%]
Pressure (altimeter): 30.38 inches Hg (1029.0 mb)
Winds: from the NE (40 degrees) at 6 MPH (5 knots; 2.6 m/s)
Visibility: 6 or more miles (10+ km)
Ceiling: at least 12,000 feet AGL
Clouds: few clouds at 6000 feet AGL
Weather: no significant weather observed at this time

METAR text: ETSB 191820Z 07005KT 9999 SCT060 05/M03 Q1029 BLU+BLU+
Conditions at: ETSB (BUECHEL , DE) observed 1820 UTC 19 March 2019
Temperature: 5.0°C (41°F)
Dewpoint: -3.0°C (27°F) [RH = 56%]
Pressure (altimeter): 30.38 inches Hg (1029.0 mb)
Winds: from the ENE (70 degrees) at 6 MPH (5 knots; 2.6 m/s)
Visibility: 6 or more miles (10+ km)
Ceiling: at least 12,000 feet AGL
Clouds: scattered clouds at 6000 feet AGL
Weather: no significant weather observed at this time

METAR text: ETSB 191720Z 08006KT 9999 FEW050 06/M02 Q1028 BLU+BLU+
Conditions at: ETSB (BUECHEL , DE) observed 1720 UTC 19 March 2019
Temperature: 6.0°C (43°F)
Dewpoint: -2.0°C (28°F) [RH = 56%]
Pressure (altimeter): 30.35 inches Hg (1028.0 mb)
Winds: from the E (80 degrees) at 7 MPH (6 knots; 3.1 m/s)
Visibility: 6 or more miles (10+ km)
Ceiling: at least 12,000 feet AGL
Clouds: few clouds at 5000 feet AGL
Weather: no significant weather observed at this time

METAR text: ETSB 191620Z 07006KT 9999 SCT050 08/M02 Q1028 BLU+BLU+
Conditions at: ETSB (BUECHEL , DE) observed 1620 UTC 19 March 2019
Temperature: 8.0°C (46°F)
Dewpoint: -2.0°C (28°F) [RH = 49%]
Pressure (altimeter): 30.35 inches Hg (1028.0 mb)
Winds: from the ENE (70 degrees) at 7 MPH (6 knots; 3.1 m/s)
Visibility: 6 or more miles (10+ km)
Ceiling: at least 12,000 feet AGL
Clouds: scattered clouds at 5000 feet AGL
Weather: no significant weather observed at this time

METAR text: ETSB 191520Z 29005KT 9999 FEW050 08/M05 Q1027 BLU+BLU+
Conditions at: ETSB (BUECHEL , DE) observed 1520 UTC 19 March 2019
Temperature: 8.0°C (46°F)
Dewpoint: -5.0°C (23°F) [RH = 39%]
Pressure (altimeter): 30.32 inches Hg (1027.0 mb)
Winds: from the WNW (290 degrees) at 6 MPH (5 knots; 2.6 m/s)
Visibility: 6 or more miles (10+ km)
Ceiling: at least 12,000 feet AGL
Clouds: few clouds at 5000 feet AGL
Weather: no significant weather observed at this time

METAR text: ETSB 191420Z 30005KT 9999 FEW050 08/M06 Q1027 BLU+BLU+
Conditions at: ETSB (BUECHEL , DE) observed 1420 UTC 19 March 2019
Temperature: 8.0°C (46°F)
Dewpoint: -6.0°C (21°F) [RH = 36%]
Pressure (altimeter): 30.32 inches Hg (1027.0 mb)
Winds: from the WNW (300 degrees) at 6 MPH (5 knots; 2.6 m/s)
Visibility: 6 or more miles (10+ km)
Ceiling: at least 12,000 feet AGL
Clouds: few clouds at 5000 feet AGL
Weather: no significant weather observed at this time

METAR text: ETSB 191320Z 36003KT 9999 FEW050 08/M06 Q1027 BLU+BLU+
Conditions at: ETSB (BUECHEL , DE) observed 1320 UTC 19 March 2019
Temperature: 8.0°C (46°F)
Dewpoint: -6.0°C (21°F) [RH = 36%]
Pressure (altimeter): 30.32 inches Hg (1027.0 mb)
Winds: from the N (360 degrees) at 3 MPH (3 knots; 1.5 m/s)
Visibility: 6 or more miles (10+ km)
Ceiling: at least 12,000 feet AGL
Clouds: few clouds at 5000 feet AGL
Weather: no significant weather observed at this time

METAR text: ETSB 191220Z 25004KT 9999 FEW040 07/M04 Q1027 BLU+BLU+
Conditions at: ETSB (BUECHEL , DE) observed 1220 UTC 19 March 2019
Temperature: 7.0°C (45°F)
Dewpoint: -4.0°C (25°F) [RH = 45%]
Pressure (altimeter): 30.32 inches Hg (1027.0 mb)
Winds: from the WSW (250 degrees) at 5 MPH (4 knots; 2.1 m/s)
Visibility: 6 or more miles (10+ km)
Ceiling: at least 12,000 feet AGL
Clouds: few clouds at 4000 feet AGL
Weather: no significant weather observed at this time

METAR text: ETSB 191120Z 24004KT 9999 FEW035 06/M04 Q1027 BLU+BLU+
Conditions at: ETSB (BUECHEL , DE) observed 1120 UTC 19 March 2019
Temperature: 6.0°C (43°F)
Dewpoint: -4.0°C (25°F) [RH = 49%]
Pressure (altimeter): 30.32 inches Hg (1027.0 mb)
Winds: from the WSW (240 degrees) at 5 MPH (4 knots; 2.1 m/s)
Visibility: 6 or more miles (10+ km)
Ceiling: at least 12,000 feet AGL
Clouds: few clouds at 3500 feet AGL
Weather: no significant weather observed at this time

METAR text: ETSB 191020Z VRB03KT 9999 FEW032 05/M04 Q1027 BLU+BLU+
Conditions at: ETSB (BUECHEL , DE) observed 1020 UTC 19 March 2019
Temperature: 5.0°C (41°F)
Dewpoint: -4.0°C (25°F) [RH = 52%]
Pressure (altimeter): 30.32 inches Hg (1027.0 mb)
Winds: variable direction winds at 3 MPH (3 knots; 1.5 m/s)
Visibility: 6 or more miles (10+ km)
Ceiling: at least 12,000 feet AGL
Clouds: few clouds at 3200 feet AGL
Weather: no significant weather observed at this time

METAR text: ETSB 190920Z VRB02KT 9999 FEW030 03/M05 Q1027 BLU+BLU+
Conditions at: ETSB (BUECHEL , DE) observed 0920 UTC 19 March 2019
Temperature: 3.0°C (37°F)
Dewpoint: -5.0°C (23°F) [RH = 56%]
Pressure (altimeter): 30.32 inches Hg (1027.0 mb)
Winds: variable direction winds at 2 MPH (2 knots; 1.0 m/s)
Visibility: 6 or more miles (10+ km)
Ceiling: at least 12,000 feet AGL
Clouds: few clouds at 3000 feet AGL
Weather: no significant weather observed at this time

METAR text: ETSB 190820Z 33003KT 9999 FEW030 03/M03 Q1027 BLU+BLU+
Conditions at: ETSB (BUECHEL , DE) observed 0820 UTC 19 March 2019
Temperature: 3.0°C (37°F)
Dewpoint: -3.0°C (27°F) [RH = 65%]
Pressure (altimeter): 30.32 inches Hg (1027.0 mb)
Winds: from the NNW (330 degrees) at 3 MPH (3 knots; 1.5 m/s)
Visibility: 6 or more miles (10+ km)
Ceiling: at least 12,000 feet AGL
Clouds: few clouds at 3000 feet AGL
Weather: no significant weather observed at this time

METAR text: ETSB 190720Z 35002KT 9999 FEW030 01/M03 Q1026 BLU+BLU+
Conditions at: ETSB (BUECHEL , DE) observed 0720 UTC 19 March 2019
Temperature: 1.0°C (34°F)
Dewpoint: -3.0°C (27°F) [RH = 75%]
Pressure (altimeter): 30.30 inches Hg (1026.0 mb)
Winds: from the N (350 degrees) at 2 MPH (2 knots; 1.0 m/s)
Visibility: 6 or more miles (10+ km)
Ceiling: at least 12,000 feet AGL
Clouds: few clouds at 3000 feet AGL
Weather: no significant weather observed at this time

METAR text: ETSB 190620Z 36004KT 9999 FEW030 00/M03 Q1025 BLU+BLU+
Conditions at: ETSB (BUECHEL , DE) observed 0620 UTC 19 March 2019
Temperature: 0.0°C (32°F)
Dewpoint: -3.0°C (27°F) [RH = 80%]
Pressure (altimeter): 30.27 inches Hg (1025.0 mb)
Winds: from the N (360 degrees) at 5 MPH (4 knots; 2.1 m/s)
Visibility: 6 or more miles (10+ km)
Ceiling: at least 12,000 feet AGL
Clouds: few clouds at 3000 feet AGL
Weather: no significant weather observed at this time

METAR text: ETSB 190520Z 35003KT 9999 FEW030 M00/M03 Q1025 BLU+BLU+
Conditions at: ETSB (BUECHEL , DE) observed 0520 UTC 19 March 2019
Temperature: 0.0°C (32°F)
Dewpoint: -3.0°C (27°F) [RH = 80%]
Pressure (altimeter): 30.27 inches Hg (1025.0 mb)
Winds: from the N (350 degrees) at 3 MPH (3 knots; 1.5 m/s)
Visibility: 6 or more miles (10+ km)
Ceiling: at least 12,000 feet AGL
Clouds: few clouds at 3000 feet AGL
Weather: no significant weather observed at this time

METAR text: ETSB 190420Z 35004KT 9999 SCT030 M00/M03 Q1025 BLU+
Conditions at: ETSB (BUECHEL , DE) observed 0420 UTC 19 March 2019
Temperature: 0.0°C (32°F)
Dewpoint: -3.0°C (27°F) [RH = 80%]
Pressure (altimeter): 30.27 inches Hg (1025.0 mb)
Winds: from the N (350 degrees) at 5 MPH (4 knots; 2.1 m/s)
Visibility: 6 or more miles (10+ km)
Ceiling: at least 12,000 feet AGL
Clouds: scattered clouds at 3000 feet AGL
Weather: no significant weather observed at this time

METAR text: ETSB 190404Z 33005KT 9999 00/M03 Q1024 BLU+
Conditions at: ETSB (BUECHEL , DE) observed 0404 UTC 19 March 2019
Temperature: 0.0°C (32°F)
Dewpoint: -3.0°C (27°F) [RH = 80%]
Pressure (altimeter): 30.24 inches Hg (1024.0 mb)
Winds: from the NNW (330 degrees) at 6 MPH (5 knots; 2.6 m/s)
Visibility: 6 or more miles (10+ km)
Ceiling: unknown
Clouds: missing
Weather: no significant weather observed at this time

METAR text: ETSB 190320Z AUTO 34004KT 9000 // ////// M01/M03 Q1024 ///
Conditions at: ETSB (BUECHEL , DE) observed 0320 UTC 19 March 2019
Temperature: -1.0°C (30°F)
Dewpoint: -3.0°C (27°F) [RH = 86%]
Pressure (altimeter): 30.24 inches Hg (1024.0 mb)
Winds: from the NNW (340 degrees) at 5 MPH (4 knots; 2.1 m/s)
Visibility: 6 miles ( 9 km)
Ceiling: unknown
Clouds: missing
Weather: no significant weather observed at this time

METAR text: ETSB 190220Z AUTO 33004KT 9000 // ////// 00/M03 Q1023 ///
Conditions at: ETSB (BUECHEL , DE) observed 0220 UTC 19 March 2019
Temperature: 0.0°C (32°F)
Dewpoint: -3.0°C (27°F) [RH = 80%]
Pressure (altimeter): 30.21 inches Hg (1023.0 mb)
Winds: from the NNW (330 degrees) at 5 MPH (4 knots; 2.1 m/s)
Visibility: 6 miles ( 9 km)
Ceiling: unknown
Clouds: missing
Weather: no significant weather observed at this time

METAR text: ETSB 190120Z AUTO 34005KT 9000 // ////// M00/M02 Q1023 ///
Conditions at: ETSB (BUECHEL , DE) observed 0120 UTC 19 March 2019
Temperature: 0.0°C (32°F)
Dewpoint: -2.0°C (28°F) [RH = 86%]
Pressure (altimeter): 30.21 inches Hg (1023.0 mb)
Winds: from the NNW (340 degrees) at 6 MPH (5 knots; 2.6 m/s)
Visibility: 6 miles ( 9 km)
Ceiling: unknown
Clouds: missing
Weather: no significant weather observed at this time

METAR text: ETSB 190020Z AUTO 31003KT 9000 // ////// 00/M01 Q1023 ///
Conditions at: ETSB (BUECHEL , DE) observed 0020 UTC 19 March 2019
Temperature: 0.0°C (32°F)
Dewpoint: -1.0°C (30°F) [RH = 93%]
Pressure (altimeter): 30.21 inches Hg (1023.0 mb)
Winds: from the NW (310 degrees) at 3 MPH (3 knots; 1.5 m/s)
Visibility: 6 miles ( 9 km)
Ceiling: unknown
Clouds: missing
Weather: no significant weather observed at this time

METAR text: ETSB 182320Z AUTO 33003KT 9999 // ////// 00/M02 Q1023 ///
Conditions at: ETSB (BUECHEL , DE) observed 2320 UTC 18 March 2019
Temperature: 0.0°C (32°F)
Dewpoint: -2.0°C (28°F) [RH = 86%]
Pressure (altimeter): 30.21 inches Hg (1023.0 mb)
Winds: from the NNW (330 degrees) at 3 MPH (3 knots; 1.5 m/s)
Visibility: 6 or more miles (10+ km)
Ceiling: unknown
Clouds: missing
Weather: no significant weather observed at this time

METAR text: ETSB 182220Z AUTO VRB01KT 9999 // ////// 01/M01 Q1023 ///
Conditions at: ETSB (BUECHEL , DE) observed 2220 UTC 18 March 2019
Temperature: 1.0°C (34°F)
Dewpoint: -1.0°C (30°F) [RH = 86%]
Pressure (altimeter): 30.21 inches Hg (1023.0 mb)
Winds: variable direction winds at 1 MPH (1 knots; 0.5 m/s)
Visibility: 6 or more miles (10+ km)
Ceiling: unknown
Clouds: missing
Weather: no significant weather observed at this time

METAR text: ETSB 182120Z AUTO 31004KT 9999 // ////// 02/M01 Q1022 ///
Conditions at: ETSB (BUECHEL , DE) observed 2120 UTC 18 March 2019
Temperature: 2.0°C (36°F)
Dewpoint: -1.0°C (30°F) [RH = 80%]
Pressure (altimeter): 30.18 inches Hg (1022.0 mb)
Winds: from the NW (310 degrees) at 5 MPH (4 knots; 2.1 m/s)
Visibility: 6 or more miles (10+ km)
Ceiling: unknown
Clouds: missing
Weather: no significant weather observed at this time

METAR text: ETSB 182101Z 31004KT 9999 SCT060 01/M01 Q1022 BLU+FCST CANCEL
Conditions at: ETSB (BUECHEL , DE) observed 2101 UTC 18 March 2019
Temperature: 1.0°C (34°F)
Dewpoint: -1.0°C (30°F) [RH = 86%]
Pressure (altimeter): 30.18 inches Hg (1022.0 mb)
Winds: from the NW (310 degrees) at 5 MPH (4 knots; 2.1 m/s)
Visibility: 6 or more miles (10+ km)
Ceiling: at least 12,000 feet AGL
Clouds: scattered clouds at 6000 feet AGL
Weather: no significant weather observed at this time

METAR text: ETSB 182020Z 27004KT 9999 SCT060 01/M02 Q1021 BLU+BLU+ TEMPO GRN
Conditions at: ETSB (BUECHEL , DE) observed 2020 UTC 18 March 2019
Temperature: 1.0°C (34°F)
Dewpoint: -2.0°C (28°F) [RH = 80%]
Pressure (altimeter): 30.15 inches Hg (1021.0 mb)
Winds: from the W (270 degrees) at 5 MPH (4 knots; 2.1 m/s)
Visibility: 6 or more miles (10+ km)
Ceiling: at least 12,000 feet AGL
Clouds: scattered clouds at 6000 feet AGL
Weather: no significant weather observed at this time

METAR text: ETSB 181920Z 27004KT 9999 SCT060 02/M02 Q1021 BLU+BLU+ TEMPO GRN
Conditions at: ETSB (BUECHEL , DE) observed 1920 UTC 18 March 2019
Temperature: 2.0°C (36°F)
Dewpoint: -2.0°C (28°F) [RH = 75%]
Pressure (altimeter): 30.15 inches Hg (1021.0 mb)
Winds: from the W (270 degrees) at 5 MPH (4 knots; 2.1 m/s)
Visibility: 6 or more miles (10+ km)
Ceiling: at least 12,000 feet AGL
Clouds: scattered clouds at 6000 feet AGL
Weather: no significant weather observed at this time

METAR text: ETSB 181820Z 29004KT 9999 SCT060 03/M02 Q1020 BLU+BLU+ TEMPO GRN
Conditions at: ETSB (BUECHEL , DE) observed 1820 UTC 18 March 2019
Temperature: 3.0°C (37°F)
Dewpoint: -2.0°C (28°F) [RH = 70%]
Pressure (altimeter): 30.12 inches Hg (1020.0 mb)
Winds: from the WNW (290 degrees) at 5 MPH (4 knots; 2.1 m/s)
Visibility: 6 or more miles (10+ km)
Ceiling: at least 12,000 feet AGL
Clouds: scattered clouds at 6000 feet AGL
Weather: no significant weather observed at this time

METAR text: ETSB 181720Z 31009KT 9999 SCT035 SCT060 04/M02 Q1020 BLU+BLU+ TEMPO GRN
Conditions at: ETSB (BUECHEL , DE) observed 1720 UTC 18 March 2019
Temperature: 4.0°C (39°F)
Dewpoint: -2.0°C (28°F) [RH = 65%]
Pressure (altimeter): 30.12 inches Hg (1020.0 mb)
Winds: from the NW (310 degrees) at 10 MPH (9 knots; 4.6 m/s)
Visibility: 6 or more miles (10+ km)
Ceiling: at least 12,000 feet AGL
Clouds: scattered clouds at 3500 feet AGL
scattered clouds at 6000 feet AGL
Weather: no significant weather observed at this time

METAR text: ETSB 181620Z 31010KT 9999 SCT020 BKN035 05/M03 Q1019 BLU BLU+ TEMPO GRN
Conditions at: ETSB (BUECHEL , DE) observed 1620 UTC 18 March 2019
Temperature: 5.0°C (41°F)
Dewpoint: -3.0°C (27°F) [RH = 56%]
Pressure (altimeter): 30.09 inches Hg (1019.0 mb)
Winds: from the NW (310 degrees) at 12 MPH (10 knots; 5.1 m/s)
Visibility: 6 or more miles (10+ km)
Ceiling: 3500 feet AGL
Clouds: scattered clouds at 2000 feet AGL
broken clouds at 3500 feet AGL
Weather: no significant weather observed at this time

Forecast for: AMD
Text: TAF AMD ETSB 192100Z 1915/1924 34004KT 9999 NSW SCT050 CANCEL BY ETGL
Forecast period: 1500 UTC 19 March 2019 to 0000 UTC 20 March 2019
Forecast type: FROM: standard forecast or significant change
Winds: from the NNW (340 degrees) at 5 MPH (4 knots; 2.1 m/s)
Visibility: 6 or more miles 10+ km)
Ceiling: at least 12,000 feet AGL
Clouds: scattered clouds at 5000 feet AGL
Weather: NSW  (no significant weather)